Pagina principale
METAR-TAF:

METAR-TAF

Aeroporti :

Aeroporto di Genova-Sestri

Genova, Italia

latitudine: 44-25N, longitudine: 008-51E, altezza: 2 m

Osservazione

Il bollettino è stato emesso 31 minuti fa, alle 20:20 UTC
Vento 3 kt da est/nord-est, variando fra nord/nord-est e est
Temperature 24°C
Umidità 78%
Pressione 1013 hPa
Visibilità 10 km o più
nessuna nube inferiore a 1500 m e nessun cumulonembo

METAR: LIMJ 222020Z 06003KT 020V100 CAVOK 24/20 Q1013

Ora: 22:51 (20:51 UTC)

Previsione

Il bollettino è stato emesso 3 ore e 51 minuti fa, alle 17:00 UTC
Previsione valida dal 22 alle 18 UTC al 23 alle 18 UTC
Vento 5 kt da sud-ovest
Visibilità 10 km o più
Nubi sparse ad un'altezza di 3000 ft
Evoluzione graduale
dal 22 alle 21 UTC al 22 alle 24 UTC
Vento 12 kt da nord

TAF: LIMJ 221700Z 2218/2318 22005KT 9999 SCT030 BECMG 2221/2224 36012KT

Osservazioni e previsioni meteorologiche di più di 4000 aeroporti (messaggi METAR e TAF).

Le stazioni disponibili sono rappresentate dai dischi gialli e rossi sulla carta.

Puntare il mouse per vedere il nome della stazione.

Clicca sopra per visualizzare le osservazioni e previsioni meteorologiche.

Per cambiare la mappa : fare clic sui pulsanti verdi con una croce nera per ingrandire, il pulsante verde con un trattino per diminuire, o sulla freccia verde per le mappe adiacenti.


METAR-TAF: